Impacts METAR Board INFO
IDs:

KLAX - Los Angeles Intl, CA, US

Updated at: 0730 UTC 24 Nov 2017
Potential Impact None Slight Moderate High
Time23/19Z 23/20Z 23/21Z 23/22Z 23/23Z 24/00Z 24/01Z 24/02Z 24/03Z 24/04Z 24/05Z 24/06Z 24/07Z
VIS10 10 10 10 10 10 10 10 10 10 10 10 10
CIG250 250 280 -- -- -- -- -- -- -- -- -- --
CoverBKNBKNBKNSCTFEWFEWFEWFEWFEWCLRFEWFEWFEW
FltCatVFRVFRVFRVFRVFRVFRVFRVFRVFRVFRVFRVFRVFR
WX--------------------------
WDir3026026027027026025026027023001000
WSpd3 11 9 11 12 9 7 6 6 4 0 4 3
WGst-- -- -- -- -- -- -- -- -- -- -- -- --
Raw hourly METARs
KLAX 231853Z 03003KT 10SM FEW100 SCT160 BKN250 33/04 A3000 RMK AO2 SLP155 T03280044
KLAX 231953Z 26011KT 10SM FEW100 SCT160 BKN250 29/08 A2997 RMK AO2 SLP146 T02940078
KLAX 232053Z 26009KT 10SM FEW045 FEW100 SCT150 BKN280 28/08 A2995 RMK AO2 SLP139 T02830083 56024
KLAX 232153Z 27011KT 10SM FEW050 FEW110 SCT160 SCT280 28/06 A2993 RMK AO2 SLP133 T02780056
KLAX 232253Z 27012KT 10SM FEW200 FEW250 26/09 A2992 RMK AO2 SLP130 T02560089
KLAX 232353Z 26009KT 10SM FEW200 FEW250 23/14 A2991 RMK AO2 SLP126 T02330139 10328 20233 56015
KLAX 240053Z 25007KT 10SM FEW200 FEW250 22/12 A2991 RMK AO2 SLP125 T02220122
KLAX 240153Z 26006KT 10SM FEW250 22/11 A2991 RMK AO2 SLP127 T02220111
KLAX 240253Z 27006KT 10SM FEW250 21/13 A2992 RMK AO2 SLP130 T02110128 53003
KLAX 240353Z 23004KT 10SM CLR 20/14 A2993 RMK AO2 SLP132 T02000139
KLAX 240453Z 00000KT 10SM FEW200 FEW250 20/14 A2993 RMK AO2 SLP133 T02000144
KLAX 240553Z 10004KT 10SM FEW200 19/14 A2993 RMK AO2 SLP132 T01940139 10233 20189 50004
KLAX 240653Z VRB03KT 10SM FEW200 19/14 A2992 RMK AO2 SLP128 T01890144